< < Back
Terminal Aerodrome Forecast


Current Version              Previous Versions:   1  2  3  4  5  6  7  8  9  

Terminal Aerodrome Forecast

825
FTUS44 KMOB 212300
TAFPNS
TAF
KPNS 212336Z 2200/2224 24005KT P6SM FEW030 SCT200
     FM221200 34005KT P6SM SCT030
     FM221800 21008KT P6SM SCT040=

Latest METAR

203
SAUS70 KWBC 220200 RRL
MTRPNS
METAR KPNS 220153Z 25008KT 10SM CLR 28/23 A3011 RMK AO2 SLP195
T02830228


USA.gov is the U.S. government's official web portal to all federal, state and local government web resources and services.